sensor_id;sensor_type;location;lat;lon;timestamp;pressure;altitude;pressure_sealevel;temperature;humidity
58018;BME280;43810;50.860;19.226;2023-06-19T00:02:09;98539.22;;;11.93;92.13
58018;BME280;43810;50.860;19.226;2023-06-19T00:04:35;98544.63;;;11.97;92.04
58018;BME280;43810;50.860;19.226;2023-06-19T00:07:01;98537.34;;;11.94;91.88
58018;BME280;43810;50.860;19.226;2023-06-19T00:09:27;98539.22;;;11.93;92.21
58018;BME280;43810;50.860;19.226;2023-06-19T00:11:53;98543.22;;;11.87;92.25
58018;BME280;43810;50.860;19.226;2023-06-19T00:14:19;98542.91;;;11.88;92.77
58018;BME280;43810;50.860;19.226;2023-06-19T00:16:45;98531.91;;;11.90;92.82
58018;BME280;43810;50.860;19.226;2023-06-19T00:19:11;98530.81;;;11.91;92.63
58018;BME280;43810;50.860;19.226;2023-06-19T00:21:38;98539.13;;;11.89;92.83
58018;BME280;43810;50.860;19.226;2023-06-19T00:24:05;98536.47;;;11.89;93.01
58018;BME280;43810;50.860;19.226;2023-06-19T00:26:31;98534.91;;;11.88;93.15
58018;BME280;43810;50.860;19.226;2023-06-19T00:28:58;98538.69;;;11.87;93.01
58018;BME280;43810;50.860;19.226;2023-06-19T00:31:23;98538.78;;;11.91;93.28
58018;BME280;43810;50.860;19.226;2023-06-19T00:33:49;98546.44;;;11.93;93.46
58018;BME280;43810;50.860;19.226;2023-06-19T00:36:16;98549.00;;;11.89;93.44
58018;BME280;43810;50.860;19.226;2023-06-19T00:38:46;98542.13;;;11.88;93.21
58018;BME280;43810;50.860;19.226;2023-06-19T00:41:15;98543.34;;;11.91;93.17
58018;BME280;43810;50.860;19.226;2023-06-19T00:43:41;98544.78;;;11.88;93.14
58018;BME280;43810;50.860;19.226;2023-06-19T00:46:07;98546.22;;;11.85;93.11
58018;BME280;43810;50.860;19.226;2023-06-19T00:48:34;98545.13;;;11.86;93.24
58018;BME280;43810;50.860;19.226;2023-06-19T00:51:00;98546.13;;;11.82;93.01
58018;BME280;43810;50.860;19.226;2023-06-19T00:53:26;98541.94;;;11.81;93.26
58018;BME280;43810;50.860;19.226;2023-06-19T00:55:53;98538.50;;;11.80;93.38
58018;BME280;43810;50.860;19.226;2023-06-19T00:58:21;98539.38;;;11.84;93.54
58018;BME280;43810;50.860;19.226;2023-06-19T01:00:48;98539.22;;;11.93;94.30
58018;BME280;43810;50.860;19.226;2023-06-19T01:03:15;98530.50;;;12.08;95.05
58018;BME280;43810;50.860;19.226;2023-06-19T01:05:41;98534.69;;;12.21;95.27
58018;BME280;43810;50.860;19.226;2023-06-19T01:08:35;98530.41;;;12.33;95.42
58018;BME280;43810;50.860;19.226;2023-06-19T01:11:03;98528.13;;;12.47;95.77
58018;BME280;43810;50.860;19.226;2023-06-19T01:13:50;98536.41;;;12.57;96.00
58018;BME280;43810;50.860;19.226;2023-06-19T01:16:20;98539.00;;;12.70;95.98
58018;BME280;43810;50.860;19.226;2023-06-19T01:18:49;98538.09;;;12.78;95.83
58018;BME280;43810;50.860;19.226;2023-06-19T01:21:17;98532.84;;;12.81;95.88
58018;BME280;43810;50.860;19.226;2023-06-19T01:23:44;98537.22;;;12.89;95.83
58018;BME280;43810;50.860;19.226;2023-06-19T01:26:11;98538.09;;;12.93;95.55
58018;BME280;43810;50.860;19.226;2023-06-19T01:28:39;98532.00;;;12.93;95.49
58018;BME280;43810;50.860;19.226;2023-06-19T01:31:11;98535.78;;;12.92;95.46
58018;BME280;43810;50.860;19.226;2023-06-19T01:33:38;98535.09;;;12.95;95.52
58018;BME280;43810;50.860;19.226;2023-06-19T01:36:06;98527.00;;;12.91;95.30
58018;BME280;43810;50.860;19.226;2023-06-19T01:38:34;98531.50;;;12.87;95.01
58018;BME280;43810;50.860;19.226;2023-06-19T01:41:01;98527.28;;;12.86;94.82
58018;BME280;43810;50.860;19.226;2023-06-19T01:43:30;98526.41;;;12.82;94.85
58018;BME280;43810;50.860;19.226;2023-06-19T01:45:58;98532.25;;;12.88;95.01
58018;BME280;43810;50.860;19.226;2023-06-19T01:48:25;98536.38;;;12.85;94.66
58018;BME280;43810;50.860;19.226;2023-06-19T01:50:51;98534.50;;;12.86;94.87
58018;BME280;43810;50.860;19.226;2023-06-19T01:53:17;98529.31;;;12.77;94.14
58018;BME280;43810;50.860;19.226;2023-06-19T01:55:42;98528.25;;;12.66;93.73
58018;BME280;43810;50.860;19.226;2023-06-19T01:58:08;98533.22;;;12.52;93.27
58018;BME280;43810;50.860;19.226;2023-06-19T02:00:34;98523.47;;;12.44;93.08
58018;BME280;43810;50.860;19.226;2023-06-19T02:03:01;98517.97;;;12.37;93.33
58018;BME280;43810;50.860;19.226;2023-06-19T02:05:27;98519.34;;;12.31;94.27
58018;BME280;43810;50.860;19.226;2023-06-19T02:07:53;98523.66;;;12.07;93.90
58018;BME280;43810;50.860;19.226;2023-06-19T02:10:19;98520.69;;;11.97;94.20
58018;BME280;43810;50.860;19.226;2023-06-19T02:12:45;98519.28;;;11.87;94.36
58018;BME280;43810;50.860;19.226;2023-06-19T02:15:11;98519.53;;;11.82;94.47
58018;BME280;43810;50.860;19.226;2023-06-19T02:17:37;98521.75;;;11.80;94.36
58018;BME280;43810;50.860;19.226;2023-06-19T02:20:03;98522.63;;;11.84;94.68
58018;BME280;43810;50.860;19.226;2023-06-19T02:22:33;98527.06;;;11.80;94.29
58018;BME280;43810;50.860;19.226;2023-06-19T02:24:59;98532.06;;;11.81;94.95
58018;BME280;43810;50.860;19.226;2023-06-19T02:27:25;98523.28;;;11.81;94.92
58018;BME280;43810;50.860;19.226;2023-06-19T02:29:50;98533.31;;;11.72;94.47
58018;BME280;43810;50.860;19.226;2023-06-19T02:32:16;98530.09;;;11.66;94.33
58018;BME280;43810;50.860;19.226;2023-06-19T02:34:42;98534.19;;;11.64;94.47
58018;BME280;43810;50.860;19.226;2023-06-19T02:37:08;98533.75;;;11.62;94.47
58018;BME280;43810;50.860;19.226;2023-06-19T02:39:34;98531.97;;;11.66;94.30
58018;BME280;43810;50.860;19.226;2023-06-19T02:42:00;98532.53;;;11.59;93.78
58018;BME280;43810;50.860;19.226;2023-06-19T02:44:25;98533.41;;;11.63;94.28
58018;BME280;43810;50.860;19.226;2023-06-19T02:46:51;98536.63;;;11.69;94.22
58018;BME280;43810;50.860;19.226;2023-06-19T02:49:17;98541.84;;;11.65;94.07
58018;BME280;43810;50.860;19.226;2023-06-19T02:51:43;98545.94;;;11.63;94.00
58018;BME280;43810;50.860;19.226;2023-06-19T02:54:08;98542.63;;;11.66;94.07
58018;BME280;43810;50.860;19.226;2023-06-19T02:56:34;98545.59;;;11.76;94.73
58018;BME280;43810;50.860;19.226;2023-06-19T02:59:00;98548.88;;;11.85;95.24
58018;BME280;43810;50.860;19.226;2023-06-19T03:01:26;98545.41;;;11.97;95.27
58018;BME280;43810;50.860;19.226;2023-06-19T03:03:52;98542.97;;;12.04;95.46
58018;BME280;43810;50.860;19.226;2023-06-19T03:06:18;98535.59;;;12.13;95.22
58018;BME280;43810;50.860;19.226;2023-06-19T03:08:43;98540.78;;;12.22;95.04
58018;BME280;43810;50.860;19.226;2023-06-19T03:11:10;98550.88;;;12.29;94.81
58018;BME280;43810;50.860;19.226;2023-06-19T03:13:53;98538.63;;;12.40;94.88
58018;BME280;43810;50.860;19.226;2023-06-19T03:16:20;98547.66;;;12.51;94.51
58018;BME280;43810;50.860;19.226;2023-06-19T03:18:46;98552.22;;;12.66;93.77
58018;BME280;43810;50.860;19.226;2023-06-19T03:21:13;98551.84;;;12.80;93.83
58018;BME280;43810;50.860;19.226;2023-06-19T03:23:39;98550.16;;;12.87;93.41
58018;BME280;43810;50.860;19.226;2023-06-19T03:26:10;98549.88;;;12.92;93.48
58018;BME280;43810;50.860;19.226;2023-06-19T03:28:36;98535.19;;;12.99;93.03
58018;BME280;43810;50.860;19.226;2023-06-19T03:31:02;98545.78;;;13.11;92.86
58018;BME280;43810;50.860;19.226;2023-06-19T03:33:28;98547.47;;;13.19;92.29
58018;BME280;43810;50.860;19.226;2023-06-19T03:35:54;98548.50;;;13.30;91.92
58018;BME280;43810;50.860;19.226;2023-06-19T03:38:20;98552.44;;;13.36;91.71
58018;BME280;43810;50.860;19.226;2023-06-19T03:40:46;98547.72;;;13.45;91.78
58018;BME280;43810;50.860;19.226;2023-06-19T03:43:12;98546.88;;;13.60;91.29
58018;BME280;43810;50.860;19.226;2023-06-19T03:45:38;98552.56;;;13.94;90.27
58018;BME280;43810;50.860;19.226;2023-06-19T03:48:04;98557.59;;;14.34;88.72
58018;BME280;43810;50.860;19.226;2023-06-19T03:50:30;98552.94;;;14.73;87.06
58018;BME280;43810;50.860;19.226;2023-06-19T03:52:55;98556.22;;;15.08;85.24
58018;BME280;43810;50.860;19.226;2023-06-19T03:55:22;98555.66;;;15.41;82.96
58018;BME280;43810;50.860;19.226;2023-06-19T03:57:47;98558.56;;;15.85;82.02
58018;BME280;43810;50.860;19.226;2023-06-19T04:00:14;98564.34;;;16.21;79.52
58018;BME280;43810;50.860;19.226;2023-06-19T04:02:40;98560.00;;;16.43;77.60
58018;BME280;43810;50.860;19.226;2023-06-19T04:05:06;98569.53;;;16.74;75.79
58018;BME280;43810;50.860;19.226;2023-06-19T04:07:32;98564.44;;;17.02;74.97
58018;BME280;43810;50.860;19.226;2023-06-19T04:09:58;98563.94;;;17.34;73.58
58018;BME280;43810;50.860;19.226;2023-06-19T04:12:24;98564.13;;;17.62;72.71
58018;BME280;43810;50.860;19.226;2023-06-19T04:14:50;98560.81;;;17.86;72.32
58018;BME280;43810;50.860;19.226;2023-06-19T04:17:17;98562.03;;;17.99;71.22
58018;BME280;43810;50.860;19.226;2023-06-19T04:19:43;98560.97;;;18.22;70.09
58018;BME280;43810;50.860;19.226;2023-06-19T04:22:09;98566.03;;;18.30;70.07
58018;BME280;43810;50.860;19.226;2023-06-19T04:24:35;98574.50;;;18.47;69.29
58018;BME280;43810;50.860;19.226;2023-06-19T04:27:00;98565.69;;;18.57;69.64
58018;BME280;43810;50.860;19.226;2023-06-19T04:29:26;98570.72;;;18.62;69.69
58018;BME280;43810;50.860;19.226;2023-06-19T04:31:58;98570.75;;;18.72;68.74
58018;BME280;43810;50.860;19.226;2023-06-19T04:34:24;98560.78;;;18.77;68.58
58018;BME280;43810;50.860;19.226;2023-06-19T04:36:51;98575.03;;;18.88;68.49
58018;BME280;43810;50.860;19.226;2023-06-19T04:39:17;98570.03;;;19.07;69.02
58018;BME280;43810;50.860;19.226;2023-06-19T04:41:43;98566.56;;;19.25;67.60
58018;BME280;43810;50.860;19.226;2023-06-19T04:44:10;98568.09;;;19.36;67.54
58018;BME280;43810;50.860;19.226;2023-06-19T04:46:38;98579.25;;;19.53;66.41
58018;BME280;43810;50.860;19.226;2023-06-19T04:49:05;98573.84;;;19.70;64.96
58018;BME280;43810;50.860;19.226;2023-06-19T04:51:31;98576.91;;;19.83;64.88
58018;BME280;43810;50.860;19.226;2023-06-19T04:54:01;98571.50;;;19.90;68.18
58018;BME280;43810;50.860;19.226;2023-06-19T04:56:27;98574.59;;;19.89;67.83
58018;BME280;43810;50.860;19.226;2023-06-19T04:58:55;98573.78;;;20.02;66.92
58018;BME280;43810;50.860;19.226;2023-06-19T05:01:25;98568.78;;;20.01;66.25
58018;BME280;43810;50.860;19.226;2023-06-19T05:03:55;98576.88;;;19.97;66.56
58018;BME280;43810;50.860;19.226;2023-06-19T05:06:24;98585.66;;;20.23;66.39
58018;BME280;43810;50.860;19.226;2023-06-19T05:08:50;98586.69;;;20.50;62.86
58018;BME280;43810;50.860;19.226;2023-06-19T05:11:16;98586.56;;;20.78;63.31
58018;BME280;43810;50.860;19.226;2023-06-19T05:13:42;98587.88;;;21.08;63.63
58018;BME280;43810;50.860;19.226;2023-06-19T05:16:08;98586.13;;;21.39;62.15
58018;BME280;43810;50.860;19.226;2023-06-19T05:18:35;98594.84;;;21.57;61.52
58018;BME280;43810;50.860;19.226;2023-06-19T05:21:00;98594.69;;;21.75;61.77
58018;BME280;43810;50.860;19.226;2023-06-19T05:23:26;98588.25;;;21.62;62.21
58018;BME280;43810;50.860;19.226;2023-06-19T05:25:52;98589.56;;;21.43;63.04
58018;BME280;43810;50.860;19.226;2023-06-19T05:28:18;98599.75;;;21.69;63.39
58018;BME280;43810;50.860;19.226;2023-06-19T05:30:43;98599.34;;;22.08;61.11
58018;BME280;43810;50.860;19.226;2023-06-19T05:33:10;98606.56;;;22.22;60.43
58018;BME280;43810;50.860;19.226;2023-06-19T05:35:44;98603.19;;;22.45;60.81
58018;BME280;43810;50.860;19.226;2023-06-19T05:38:17;98598.34;;;22.59;56.69
58018;BME280;43810;50.860;19.226;2023-06-19T05:40:42;98605.38;;;22.57;56.78
58018;BME280;43810;50.860;19.226;2023-06-19T05:43:08;98601.97;;;22.80;57.83
58018;BME280;43810;50.860;19.226;2023-06-19T05:45:34;98601.88;;;23.14;55.55
58018;BME280;43810;50.860;19.226;2023-06-19T05:48:00;98612.47;;;23.28;55.02
58018;BME280;43810;50.860;19.226;2023-06-19T05:50:26;98606.34;;;23.47;52.19
58018;BME280;43810;50.860;19.226;2023-06-19T05:52:52;98608.00;;;23.64;53.05
58018;BME280;43810;50.860;19.226;2023-06-19T05:55:18;98611.00;;;23.93;51.86
58018;BME280;43810;50.860;19.226;2023-06-19T05:57:44;98607.66;;;24.25;50.66
58018;BME280;43810;50.860;19.226;2023-06-19T06:00:10;98612.13;;;23.96;52.13
58018;BME280;43810;50.860;19.226;2023-06-19T06:02:42;98615.38;;;24.27;51.32
58018;BME280;43810;50.860;19.226;2023-06-19T06:05:08;98622.50;;;24.40;50.30
58018;BME280;43810;50.860;19.226;2023-06-19T06:07:37;98617.19;;;23.94;50.64
58018;BME280;43810;50.860;19.226;2023-06-19T06:10:03;98612.53;;;23.94;51.83
58018;BME280;43810;50.860;19.226;2023-06-19T06:12:29;98605.28;;;23.88;50.94
58018;BME280;43810;50.860;19.226;2023-06-19T06:14:54;98603.75;;;24.26;52.82
58018;BME280;43810;50.860;19.226;2023-06-19T06:17:20;98605.97;;;24.31;53.09
58018;BME280;43810;50.860;19.226;2023-06-19T06:19:46;98605.72;;;24.06;54.30
58018;BME280;43810;50.860;19.226;2023-06-19T06:22:12;98605.47;;;23.97;52.65
58018;BME280;43810;50.860;19.226;2023-06-19T06:24:37;98605.56;;;24.13;53.07
58018;BME280;43810;50.860;19.226;2023-06-19T06:27:04;98608.50;;;24.62;52.98
58018;BME280;43810;50.860;19.226;2023-06-19T06:29:31;98607.94;;;25.03;53.33
58018;BME280;43810;50.860;19.226;2023-06-19T06:32:07;98613.75;;;25.21;47.61
58018;BME280;43810;50.860;19.226;2023-06-19T06:34:35;98617.59;;;25.56;45.69
58018;BME280;43810;50.860;19.226;2023-06-19T06:37:02;98619.53;;;25.56;47.54
58018;BME280;43810;50.860;19.226;2023-06-19T06:39:28;98622.44;;;25.32;47.63
58018;BME280;43810;50.860;19.226;2023-06-19T06:41:54;98622.50;;;25.61;48.15
58018;BME280;43810;50.860;19.226;2023-06-19T06:44:19;98626.47;;;25.73;48.51
58018;BME280;43810;50.860;19.226;2023-06-19T06:46:46;98624.22;;;26.00;47.20
58018;BME280;43810;50.860;19.226;2023-06-19T06:49:12;98626.72;;;26.23;46.76
58018;BME280;43810;50.860;19.226;2023-06-19T06:51:38;98618.69;;;26.45;46.93
58018;BME280;43810;50.860;19.226;2023-06-19T06:54:03;98633.44;;;26.19;46.72
58018;BME280;43810;50.860;19.226;2023-06-19T06:56:30;98636.81;;;25.94;47.39
58018;BME280;43810;50.860;19.226;2023-06-19T06:58:55;98633.63;;;26.12;47.30
58018;BME280;43810;50.860;19.226;2023-06-19T07:01:21;98634.81;;;26.52;45.87
58018;BME280;43810;50.860;19.226;2023-06-19T07:03:47;98639.94;;;26.50;45.71
58018;BME280;43810;50.860;19.226;2023-06-19T07:06:13;98643.94;;;26.04;48.33
58018;BME280;43810;50.860;19.226;2023-06-19T07:08:38;98635.25;;;26.38;45.10
58018;BME280;43810;50.860;19.226;2023-06-19T07:11:09;98642.31;;;26.90;44.89
58018;BME280;43810;50.860;19.226;2023-06-19T07:13:35;98650.00;;;25.96;46.44
58018;BME280;43810;50.860;19.226;2023-06-19T07:16:01;98635.34;;;26.06;46.18
58018;BME280;43810;50.860;19.226;2023-06-19T07:18:27;98633.53;;;26.15;45.65
58018;BME280;43810;50.860;19.226;2023-06-19T07:20:53;98647.25;;;26.53;45.13
58018;BME280;43810;50.860;19.226;2023-06-19T07:23:19;98644.94;;;26.81;43.27
58018;BME280;43810;50.860;19.226;2023-06-19T07:25:46;98642.22;;;27.19;43.28
58018;BME280;43810;50.860;19.226;2023-06-19T07:28:12;98645.06;;;27.41;42.51
58018;BME280;43810;50.860;19.226;2023-06-19T07:30:39;98645.59;;;27.36;46.32
58018;BME280;43810;50.860;19.226;2023-06-19T07:33:05;98651.13;;;27.19;47.21
58018;BME280;43810;50.860;19.226;2023-06-19T07:35:31;98637.72;;;27.25;45.45
58018;BME280;43810;50.860;19.226;2023-06-19T07:37:56;98652.78;;;27.04;44.58
58018;BME280;43810;50.860;19.226;2023-06-19T07:40:22;98647.88;;;26.86;44.78
58018;BME280;43810;50.860;19.226;2023-06-19T07:42:48;98643.72;;;27.20;45.19
58018;BME280;43810;50.860;19.226;2023-06-19T07:45:14;98646.16;;;27.30;44.25
58018;BME280;43810;50.860;19.226;2023-06-19T07:47:40;98652.25;;;27.35;43.48
58018;BME280;43810;50.860;19.226;2023-06-19T07:50:06;98647.75;;;27.53;43.53
58018;BME280;43810;50.860;19.226;2023-06-19T07:52:32;98648.53;;;27.88;43.90
58018;BME280;43810;50.860;19.226;2023-06-19T07:54:59;98645.38;;;28.12;41.69
58018;BME280;43810;50.860;19.226;2023-06-19T07:57:25;98647.22;;;27.80;42.35
58018;BME280;43810;50.860;19.226;2023-06-19T07:59:53;98649.84;;;27.49;39.77
58018;BME280;43810;50.860;19.226;2023-06-19T08:02:19;98656.69;;;27.54;40.85
58018;BME280;43810;50.860;19.226;2023-06-19T08:04:46;98650.13;;;27.64;40.68
58018;BME280;43810;50.860;19.226;2023-06-19T08:07:12;98649.81;;;27.62;41.71
58018;BME280;43810;50.860;19.226;2023-06-19T08:09:38;98656.69;;;27.54;42.66
58018;BME280;43810;50.860;19.226;2023-06-19T08:12:06;98660.41;;;27.22;41.17
58018;BME280;43810;50.860;19.226;2023-06-19T08:14:32;98658.69;;;27.15;39.57
58018;BME280;43810;50.860;19.226;2023-06-19T08:16:57;98653.31;;;27.12;41.96
58018;BME280;43810;50.860;19.226;2023-06-19T08:19:24;98656.38;;;27.52;43.15
58018;BME280;43810;50.860;19.226;2023-06-19T08:21:49;98648.59;;;27.63;42.12
58018;BME280;43810;50.860;19.226;2023-06-19T08:24:15;98646.75;;;27.60;41.44
58018;BME280;43810;50.860;19.226;2023-06-19T08:26:41;98654.41;;;27.99;41.43
58018;BME280;43810;50.860;19.226;2023-06-19T08:29:07;98654.78;;;28.54;40.18
58018;BME280;43810;50.860;19.226;2023-06-19T08:31:33;98644.94;;;28.35;43.08
58018;BME280;43810;50.860;19.226;2023-06-19T08:33:59;98645.25;;;27.81;40.24
58018;BME280;43810;50.860;19.226;2023-06-19T08:36:25;98641.16;;;28.11;39.99
58018;BME280;43810;50.860;19.226;2023-06-19T08:38:51;98634.66;;;27.83;40.54
58018;BME280;43810;50.860;19.226;2023-06-19T08:41:19;98641.34;;;27.82;40.90
58018;BME280;43810;50.860;19.226;2023-06-19T08:43:46;98640.28;;;28.01;41.40
58018;BME280;43810;50.860;19.226;2023-06-19T08:46:14;98637.66;;;28.10;38.34
58018;BME280;43810;50.860;19.226;2023-06-19T08:48:41;98638.34;;;28.23;39.80
58018;BME280;43810;50.860;19.226;2023-06-19T08:51:06;98639.78;;;28.59;38.62
58018;BME280;43810;50.860;19.226;2023-06-19T08:53:34;98630.56;;;28.96;38.09
58018;BME280;43810;50.860;19.226;2023-06-19T08:56:02;98631.63;;;29.39;35.51
58018;BME280;43810;50.860;19.226;2023-06-19T08:58:28;98628.31;;;29.53;36.19
58018;BME280;43810;50.860;19.226;2023-06-19T09:00:54;98627.50;;;29.25;39.62
58018;BME280;43810;50.860;19.226;2023-06-19T09:03:21;98636.91;;;28.93;38.36
58018;BME280;43810;50.860;19.226;2023-06-19T09:05:49;98635.38;;;28.30;37.35
58018;BME280;43810;50.860;19.226;2023-06-19T09:08:20;98631.66;;;28.24;38.73
58018;BME280;43810;50.860;19.226;2023-06-19T09:11:00;98631.56;;;28.81;37.41
58018;BME280;43810;50.860;19.226;2023-06-19T09:13:27;98632.09;;;29.37;37.86
58018;BME280;43810;50.860;19.226;2023-06-19T09:16:07;98630.75;;;29.69;37.40
58018;BME280;43810;50.860;19.226;2023-06-19T09:21:18;98631.84;;;29.99;36.14
58018;BME280;43810;50.860;19.226;2023-06-19T09:23:45;98625.03;;;29.95;36.31
58018;BME280;43810;50.860;19.226;2023-06-19T09:26:14;98623.91;;;30.29;34.40
58018;BME280;43810;50.860;19.226;2023-06-19T09:28:41;98623.47;;;30.12;35.74
58018;BME280;43810;50.860;19.226;2023-06-19T09:31:08;98632.91;;;30.11;35.49
58018;BME280;43810;50.860;19.226;2023-06-19T09:33:36;98623.75;;;30.32;36.37
58018;BME280;43810;50.860;19.226;2023-06-19T09:36:05;98630.63;;;30.00;35.42
58018;BME280;43810;50.860;19.226;2023-06-19T09:38:34;98635.09;;;29.30;36.75
58018;BME280;43810;50.860;19.226;2023-06-19T09:41:02;98623.25;;;29.24;36.11
58018;BME280;43810;50.860;19.226;2023-06-19T09:43:48;98624.31;;;29.27;38.23
58018;BME280;43810;50.860;19.226;2023-06-19T09:46:16;98621.28;;;29.34;35.53
58018;BME280;43810;50.860;19.226;2023-06-19T09:48:45;98624.06;;;29.61;36.66
58018;BME280;43810;50.860;19.226;2023-06-19T09:51:29;98623.63;;;29.72;39.48
58018;BME280;43810;50.860;19.226;2023-06-19T09:53:56;98607.59;;;30.34;37.14
58018;BME280;43810;50.860;19.226;2023-06-19T09:56:24;98614.16;;;30.28;36.22
58018;BME280;43810;50.860;19.226;2023-06-19T09:58:55;98618.56;;;30.43;37.98
58018;BME280;43810;50.860;19.226;2023-06-19T10:01:22;98599.81;;;30.51;37.88
58018;BME280;43810;50.860;19.226;2023-06-19T10:03:49;98613.97;;;30.59;35.92
58018;BME280;43810;50.860;19.226;2023-06-19T10:06:15;98604.53;;;30.93;36.30
58018;BME280;43810;50.860;19.226;2023-06-19T10:08:43;98608.47;;;31.01;34.76
58018;BME280;43810;50.860;19.226;2023-06-19T10:11:13;98606.97;;;31.23;35.57
58018;BME280;43810;50.860;19.226;2023-06-19T10:13:42;98597.16;;;30.75;35.36
58018;BME280;43810;50.860;19.226;2023-06-19T10:16:20;98595.28;;;30.81;36.94
58018;BME280;43810;50.860;19.226;2023-06-19T10:18:47;98595.75;;;30.79;33.89
58018;BME280;43810;50.860;19.226;2023-06-19T10:21:20;98603.06;;;31.39;33.70
58018;BME280;43810;50.860;19.226;2023-06-19T10:23:57;98594.09;;;31.63;32.16
58018;BME280;43810;50.860;19.226;2023-06-19T10:26:31;98600.97;;;31.58;31.63
58018;BME280;43810;50.860;19.226;2023-06-19T10:28:57;98590.72;;;31.82;32.83
58018;BME280;43810;50.860;19.226;2023-06-19T10:31:23;98599.28;;;31.99;30.97
58018;BME280;43810;50.860;19.226;2023-06-19T10:33:49;98590.91;;;31.79;32.65
58018;BME280;43810;50.860;19.226;2023-06-19T10:36:16;98589.75;;;31.47;32.01
58018;BME280;43810;50.860;19.226;2023-06-19T10:38:43;98586.13;;;30.33;33.72
58018;BME280;43810;50.860;19.226;2023-06-19T10:41:16;98595.75;;;30.37;33.40
58018;BME280;43810;50.860;19.226;2023-06-19T10:43:58;98591.31;;;30.49;34.71
58018;BME280;43810;50.860;19.226;2023-06-19T10:46:28;98596.31;;;30.50;34.36
58018;BME280;43810;50.860;19.226;2023-06-19T10:48:55;98584.28;;;30.48;32.81
58018;BME280;43810;50.860;19.226;2023-06-19T10:51:39;98592.44;;;30.75;35.42
58018;BME280;43810;50.860;19.226;2023-06-19T10:54:06;98590.56;;;30.81;33.22
58018;BME280;43810;50.860;19.226;2023-06-19T10:56:33;98594.97;;;30.88;35.43
58018;BME280;43810;50.860;19.226;2023-06-19T10:59:04;98590.91;;;29.68;36.30
58018;BME280;43810;50.860;19.226;2023-06-19T11:01:44;98585.13;;;28.99;36.86
58018;BME280;43810;50.860;19.226;2023-06-19T11:04:12;98584.19;;;29.42;36.49
58018;BME280;43810;50.860;19.226;2023-06-19T11:06:39;98578.75;;;29.60;35.46
58018;BME280;43810;50.860;19.226;2023-06-19T11:09:07;98580.69;;;29.23;35.75
58018;BME280;43810;50.860;19.226;2023-06-19T11:14:08;98579.34;;;29.64;36.57
58018;BME280;43810;50.860;19.226;2023-06-19T11:16:34;98584.22;;;30.06;36.07
58018;BME280;43810;50.860;19.226;2023-06-19T11:19:03;98582.66;;;30.41;36.83
58018;BME280;43810;50.860;19.226;2023-06-19T11:21:33;98580.50;;;30.36;36.80
58018;BME280;43810;50.860;19.226;2023-06-19T11:24:02;98574.56;;;30.47;35.54
58018;BME280;43810;50.860;19.226;2023-06-19T11:26:28;98569.88;;;30.71;37.44
58018;BME280;43810;50.860;19.226;2023-06-19T11:28:54;98579.59;;;30.81;35.17
58018;BME280;43810;50.860;19.226;2023-06-19T11:31:27;98566.41;;;30.95;34.84
58018;BME280;43810;50.860;19.226;2023-06-19T11:33:59;98562.78;;;31.21;33.54
58018;BME280;43810;50.860;19.226;2023-06-19T11:36:28;98564.25;;;30.75;33.11
58018;BME280;43810;50.860;19.226;2023-06-19T11:38:55;98564.91;;;30.94;35.15
58018;BME280;43810;50.860;19.226;2023-06-19T11:41:28;98566.53;;;30.76;33.66
58018;BME280;43810;50.860;19.226;2023-06-19T11:44:06;98566.41;;;31.28;34.64
58018;BME280;43810;50.860;19.226;2023-06-19T11:46:33;98569.22;;;31.18;32.27
58018;BME280;43810;50.860;19.226;2023-06-19T11:49:13;98559.53;;;30.75;35.26
58018;BME280;43810;50.860;19.226;2023-06-19T11:51:40;98565.31;;;30.68;34.92
58018;BME280;43810;50.860;19.226;2023-06-19T11:54:07;98552.63;;;30.47;33.73
58018;BME280;43810;50.860;19.226;2023-06-19T11:56:37;98554.56;;;30.56;35.81
58018;BME280;43810;50.860;19.226;2023-06-19T11:59:04;98544.44;;;30.29;36.01
58018;BME280;43810;50.860;19.226;2023-06-19T12:01:34;98544.22;;;29.81;35.42
58018;BME280;43810;50.860;19.226;2023-06-19T12:04:00;98547.69;;;30.00;33.24
58018;BME280;43810;50.860;19.226;2023-06-19T12:06:29;98549.47;;;30.72;34.57
58018;BME280;43810;50.860;19.226;2023-06-19T12:08:56;98547.56;;;31.20;31.13
58018;BME280;43810;50.860;19.226;2023-06-19T12:11:22;98549.50;;;31.68;31.96
58018;BME280;43810;50.860;19.226;2023-06-19T12:13:48;98541.00;;;31.95;33.07
58018;BME280;43810;50.860;19.226;2023-06-19T12:16:14;98540.75;;;32.22;32.82
58018;BME280;43810;50.860;19.226;2023-06-19T12:18:40;98542.50;;;32.70;30.38
58018;BME280;43810;50.860;19.226;2023-06-19T12:21:06;98552.59;;;33.13;29.82
58018;BME280;43810;50.860;19.226;2023-06-19T12:23:32;98536.50;;;33.06;33.04
58018;BME280;43810;50.860;19.226;2023-06-19T12:25:58;98542.72;;;33.42;31.97
58018;BME280;43810;50.860;19.226;2023-06-19T12:28:24;98540.78;;;33.27;29.76
58018;BME280;43810;50.860;19.226;2023-06-19T12:30:51;98544.16;;;33.37;28.80
58018;BME280;43810;50.860;19.226;2023-06-19T12:33:18;98537.16;;;32.81;28.41
58018;BME280;43810;50.860;19.226;2023-06-19T12:35:44;98536.09;;;31.99;28.57
58018;BME280;43810;50.860;19.226;2023-06-19T12:38:11;98528.13;;;31.86;29.36
58018;BME280;43810;50.860;19.226;2023-06-19T12:40:37;98530.97;;;31.92;28.94
58018;BME280;43810;50.860;19.226;2023-06-19T12:43:03;98523.31;;;32.11;30.79
58018;BME280;43810;50.860;19.226;2023-06-19T12:45:29;98530.69;;;31.90;31.74
58018;BME280;43810;50.860;19.226;2023-06-19T12:47:55;98525.97;;;32.84;30.50
58018;BME280;43810;50.860;19.226;2023-06-19T12:50:21;98529.03;;;32.72;30.32
58018;BME280;43810;50.860;19.226;2023-06-19T12:52:48;98530.00;;;32.39;30.50
58018;BME280;43810;50.860;19.226;2023-06-19T12:55:14;98519.56;;;32.43;29.68
58018;BME280;43810;50.860;19.226;2023-06-19T12:57:40;98523.56;;;32.42;31.26